createdAt,value
2019-06-01T00:00:57.278Z,22.93
2019-06-01T00:03:23.300Z,22.93
2019-06-01T00:05:49.289Z,22.92
2019-06-01T00:08:15.305Z,22.92
2019-06-01T00:10:41.303Z,22.90
2019-06-01T00:13:07.326Z,22.91
2019-06-01T00:15:33.344Z,22.90
2019-06-01T00:17:59.359Z,22.90
2019-06-01T00:20:25.372Z,22.89
2019-06-01T00:22:51.753Z,22.89
2019-06-01T00:25:17.391Z,22.89
2019-06-01T00:27:44.649Z,22.89
2019-06-01T00:30:09.398Z,22.89
2019-06-01T00:32:35.394Z,22.88
2019-06-01T00:35:01.454Z,22.89
2019-06-01T00:37:27.422Z,22.88
2019-06-01T00:39:53.420Z,22.88
2019-06-01T00:42:19.435Z,22.87
2019-06-01T00:44:46.291Z,22.87
2019-06-01T00:47:11.531Z,22.87
2019-06-01T00:49:37.537Z,22.86
2019-06-01T00:52:03.563Z,22.86
2019-06-01T00:54:29.584Z,22.86
2019-06-01T00:56:55.601Z,22.86
2019-06-01T00:59:21.615Z,22.86
2019-06-01T01:01:47.868Z,22.86
2019-06-01T01:04:13.633Z,22.85
2019-06-01T01:06:39.633Z,22.85
2019-06-01T01:09:05.626Z,22.85
2019-06-01T01:11:31.652Z,22.85
2019-06-01T01:13:57.646Z,22.84
2019-06-01T01:16:23.674Z,22.84
2019-06-01T01:18:49.781Z,22.84
2019-06-01T01:21:15.678Z,22.83
2019-06-01T01:23:41.705Z,22.83
2019-06-01T01:26:07.710Z,22.82
2019-06-01T01:28:33.741Z,22.83
2019-06-01T01:31:12.417Z,22.83
2019-06-01T01:33:25.792Z,22.82
2019-06-01T01:35:52.638Z,22.83
2019-06-01T01:38:17.797Z,22.82
2019-06-01T01:40:43.823Z,22.82
2019-06-01T01:43:09.811Z,22.82
2019-06-01T01:45:35.834Z,22.82
2019-06-01T01:48:01.828Z,22.81
2019-06-01T01:50:27.895Z,22.81
2019-06-01T01:52:54.787Z,22.81
2019-06-01T01:55:19.906Z,22.81
2019-06-01T01:57:45.922Z,22.80
2019-06-01T02:00:11.912Z,22.81
2019-06-01T02:02:37.926Z,22.80
2019-06-01T02:05:03.930Z,22.80
2019-06-01T02:07:29.962Z,22.80
2019-06-01T02:09:57.180Z,22.80
2019-06-01T02:12:22.077Z,22.80
2019-06-01T02:14:48.073Z,22.79
2019-06-01T02:17:14.075Z,22.79
2019-06-01T02:19:40.096Z,22.78
2019-06-01T02:22:06.081Z,22.79
2019-06-01T02:24:32.100Z,22.78
2019-06-01T02:26:59.342Z,22.79
2019-06-01T02:29:24.101Z,22.78
2019-06-01T02:31:50.125Z,22.78
2019-06-01T02:34:16.117Z,22.78
2019-06-01T02:36:42.154Z,22.77
2019-06-01T02:39:08.172Z,22.77
2019-06-01T02:41:34.266Z,22.78
2019-06-01T02:44:01.650Z,22.77
2019-06-01T02:46:26.280Z,22.76
2019-06-01T02:48:52.301Z,22.76
2019-06-01T02:51:18.295Z,22.76
2019-06-01T02:53:44.354Z,22.77
2019-06-01T02:56:10.367Z,22.77
2019-06-01T02:58:36.359Z,22.76
2019-06-01T03:01:02.987Z,22.77
2019-06-01T03:03:28.506Z,22.77
2019-06-01T03:05:54.522Z,22.77
2019-06-01T03:08:20.511Z,22.77
2019-06-01T03:10:46.534Z,22.77
2019-06-01T03:13:12.544Z,22.77
2019-06-01T03:15:38.549Z,22.77
2019-06-01T03:18:05.687Z,22.76
2019-06-01T03:20:30.699Z,22.78
2019-06-01T03:22:56.800Z,22.78
2019-06-01T03:25:22.820Z,22.78
2019-06-01T03:27:48.834Z,22.77
2019-06-01T03:30:15.617Z,22.78
2019-06-01T03:32:40.848Z,22.78
2019-06-01T03:35:06.858Z,22.78
2019-06-01T03:37:32.853Z,22.77
2019-06-01T03:39:58.866Z,22.77
2019-06-01T03:42:24.867Z,22.77
2019-06-01T03:44:50.871Z,22.78
2019-06-01T03:47:16.947Z,22.78
2019-06-01T03:49:42.941Z,22.77
2019-06-01T03:52:08.970Z,22.77
2019-06-01T03:54:34.973Z,22.77
2019-06-01T03:57:00.992Z,22.78
2019-06-01T03:59:26.989Z,22.77
2019-06-01T04:01:52.979Z,22.77
2019-06-01T04:04:18.998Z,22.77
2019-06-01T04:06:44.990Z,22.77
2019-06-01T04:09:11.859Z,22.77
2019-06-01T04:11:37.161Z,22.77
2019-06-01T04:14:03.453Z,22.77
2019-06-01T04:16:29.267Z,22.77
2019-06-01T04:18:55.374Z,22.77
2019-06-01T04:21:21.394Z,22.77
2019-06-01T04:23:47.402Z,22.77
2019-06-01T04:26:13.419Z,22.76
2019-06-01T04:28:39.469Z,22.76
2019-06-01T04:31:06.507Z,22.76
2019-06-01T04:33:31.465Z,22.76
2019-06-01T04:35:57.488Z,22.76
2019-06-01T04:38:23.503Z,22.76
2019-06-01T04:40:49.527Z,22.76
2019-06-01T04:43:15.536Z,22.76
2019-06-01T04:45:41.562Z,22.76
2019-06-01T04:48:08.420Z,22.76
2019-06-01T04:50:33.573Z,22.76
2019-06-01T04:52:59.595Z,22.75
2019-06-01T04:55:25.605Z,22.75
2019-06-01T04:57:51.618Z,22.75
2019-06-01T05:00:27.880Z,22.75
2019-06-01T05:02:43.646Z,22.75
2019-06-01T05:05:09.662Z,22.76
2019-06-01T05:07:35.653Z,22.75
2019-06-01T05:10:01.692Z,22.76
2019-06-01T05:12:27.704Z,22.75
2019-06-01T05:14:53.713Z,22.75
2019-06-01T05:17:19.734Z,22.75
2019-06-01T05:19:45.730Z,22.75
2019-06-01T05:22:12.572Z,22.75
2019-06-01T05:24:37.735Z,22.75
2019-06-01T05:27:03.781Z,22.75
2019-06-01T05:29:29.771Z,22.75
2019-06-01T05:31:55.762Z,22.75
2019-06-01T05:34:21.790Z,22.76
2019-06-01T05:36:47.780Z,22.75
2019-06-01T05:39:14.478Z,22.76
2019-06-01T05:41:39.791Z,22.75
2019-06-01T05:44:05.809Z,22.75
2019-06-01T05:46:31.806Z,22.75
2019-06-01T05:48:57.825Z,22.75
2019-06-01T05:51:23.843Z,22.75
2019-06-01T05:53:49.851Z,22.74
2019-06-01T05:56:16.842Z,22.74
2019-06-01T05:58:41.912Z,22.74
2019-06-01T06:01:12.276Z,22.74
2019-06-01T06:03:40.242Z,22.74
2019-06-01T06:06:02.794Z,22.74
2019-06-01T06:08:28.780Z,22.75
2019-06-01T06:10:54.786Z,22.74
2019-06-01T06:13:21.626Z,22.75
2019-06-01T06:15:46.809Z,22.74
2019-06-01T06:18:13.680Z,22.74
2019-06-01T06:20:38.843Z,22.74
2019-06-01T06:23:04.840Z,22.73
2019-06-01T06:25:32.914Z,22.75
2019-06-01T06:27:56.920Z,22.75
2019-06-01T06:30:23.056Z,22.74
2019-06-01T06:32:48.964Z,22.76
2019-06-01T06:35:15.349Z,22.74
2019-06-01T06:37:42.431Z,22.73
2019-06-01T06:40:06.990Z,22.74
2019-06-01T06:42:33.013Z,22.73
2019-06-01T06:44:59.009Z,22.73
2019-06-01T06:47:25.261Z,22.74
2019-06-01T06:49:51.285Z,22.74
2019-06-01T06:52:17.478Z,22.74
2019-06-01T06:54:43.315Z,22.73
2019-06-01T06:57:09.323Z,22.74
2019-06-01T06:59:36.404Z,22.74
2019-06-01T07:02:17.344Z,22.74
2019-06-01T07:04:43.661Z,22.74
2019-06-01T07:07:09.906Z,22.75
2019-06-01T07:09:37.611Z,22.74
2019-06-01T07:12:03.613Z,22.75
2019-06-01T07:14:29.663Z,22.75
2019-06-01T07:16:55.642Z,22.75
2019-06-01T07:19:21.694Z,22.75
2019-06-01T07:21:48.125Z,22.75
2019-06-01T07:24:34.852Z,22.75
2019-06-01T07:27:00.979Z,22.75
2019-06-01T07:29:28.286Z,22.75
2019-06-01T07:31:53.469Z,22.76
2019-06-01T07:34:30.658Z,22.75
2019-06-01T07:36:48.533Z,22.76
2019-06-01T07:39:14.811Z,22.76
2019-06-01T07:41:45.433Z,22.75
2019-06-01T07:44:12.463Z,22.75
2019-06-01T07:46:38.479Z,22.76
2019-06-01T07:49:04.681Z,22.74
2019-06-01T07:51:31.695Z,22.75
2019-06-01T07:53:56.744Z,22.76
2019-06-01T07:56:28.601Z,22.75
2019-06-01T07:58:55.586Z,22.76
2019-06-01T08:01:23.600Z,22.76
2019-06-01T08:03:48.009Z,22.77
2019-06-01T08:06:14.158Z,22.77
2019-06-01T08:08:41.224Z,22.77
2019-06-01T08:11:07.535Z,22.77
2019-06-01T08:13:35.748Z,22.77
2019-06-01T08:15:59.665Z,22.78
2019-06-01T08:18:26.047Z,22.78
2019-06-01T08:20:52.397Z,22.78
2019-06-01T08:23:18.381Z,22.80
2019-06-01T08:25:44.965Z,22.82
2019-06-01T08:28:12.237Z,22.82
2019-06-01T08:30:38.249Z,22.83
2019-06-01T08:33:04.582Z,22.83
2019-06-01T08:35:31.523Z,22.84
2019-06-01T08:37:58.805Z,22.83
2019-06-01T08:40:25.527Z,22.83
2019-06-01T08:42:51.573Z,22.82
2019-06-01T08:45:17.572Z,22.81
2019-06-01T08:47:43.586Z,22.82
2019-06-01T08:50:09.926Z,22.82
2019-06-01T08:52:35.928Z,22.81
2019-06-01T08:55:01.965Z,22.81
2019-06-01T08:57:30.337Z,22.80
2019-06-01T09:02:39.948Z,22.80
2019-06-01T09:05:23.810Z,22.80
2019-06-01T09:07:38.406Z,22.79
2019-06-01T09:10:04.393Z,22.78
2019-06-01T09:12:31.359Z,22.79
2019-06-01T09:14:56.966Z,22.79
2019-06-01T09:17:23.080Z,22.78
2019-06-01T09:19:49.141Z,22.77
2019-06-01T09:22:15.222Z,22.78
2019-06-01T09:24:41.399Z,22.78
2019-06-01T09:27:07.622Z,22.78
2019-06-01T09:29:34.091Z,22.77
2019-06-01T09:32:01.145Z,22.77
2019-06-01T09:34:28.409Z,22.76
2019-06-01T09:36:55.546Z,22.77
2019-06-01T09:39:19.626Z,22.76
2019-06-01T09:41:45.857Z,22.76
2019-06-01T09:44:12.304Z,22.76
2019-06-01T09:46:38.474Z,22.76
2019-06-01T09:49:04.550Z,22.75
2019-06-01T09:51:31.387Z,22.75
2019-06-01T09:53:59.184Z,22.75
2019-06-01T09:56:29.081Z,22.76
2019-06-01T09:58:52.964Z,22.75
2019-06-01T10:01:20.527Z,22.75
2019-06-01T10:03:46.956Z,22.75
2019-06-01T10:06:14.105Z,22.74
2019-06-01T10:08:38.962Z,22.74
2019-06-01T10:11:04.967Z,22.75
2019-06-01T10:13:32.970Z,22.73
2019-06-01T10:15:56.999Z,22.73
2019-06-01T10:18:26.780Z,22.73
2019-06-01T10:20:49.134Z,22.73
2019-06-01T10:23:15.242Z,22.72
2019-06-01T10:25:42.574Z,22.72
2019-06-01T10:28:07.269Z,22.73
2019-06-01T10:30:33.915Z,22.73
2019-06-01T10:32:59.798Z,22.73
2019-06-01T10:35:25.789Z,22.73
2019-06-01T10:37:51.840Z,22.72
2019-06-01T10:40:17.833Z,22.72
2019-06-01T10:42:43.863Z,22.72
2019-06-01T10:45:09.865Z,22.72
2019-06-01T10:47:36.002Z,22.72
2019-06-01T10:50:01.878Z,22.72
2019-06-01T10:52:27.874Z,22.72
2019-06-01T10:54:53.890Z,22.72
2019-06-01T10:57:19.884Z,22.72
2019-06-01T10:59:45.896Z,22.72
2019-06-01T11:02:11.904Z,22.72
2019-06-01T11:04:38.962Z,22.72
2019-06-01T11:07:04.406Z,22.72
2019-06-01T11:09:30.397Z,22.72
2019-06-01T11:11:56.438Z,22.72
2019-06-01T11:14:22.441Z,22.71
2019-06-01T11:16:55.797Z,22.72
2019-06-01T11:19:14.483Z,22.71
2019-06-01T11:21:41.633Z,22.72
2019-06-01T11:24:06.524Z,22.72
2019-06-01T11:26:33.327Z,22.73
2019-06-01T11:28:58.546Z,22.73
2019-06-01T11:31:24.545Z,22.73
2019-06-01T11:33:50.544Z,22.74
2019-06-01T11:36:16.610Z,22.75
2019-06-01T11:38:42.622Z,22.75
2019-06-01T11:41:08.621Z,22.77
2019-06-01T11:43:34.660Z,22.78
2019-06-01T11:46:00.674Z,22.80
2019-06-01T11:48:26.707Z,22.81
2019-06-01T11:50:52.754Z,22.82
2019-06-01T11:53:18.774Z,22.83
2019-06-01T11:55:45.551Z,22.86
2019-06-01T11:58:10.817Z,22.87
2019-06-01T12:00:37.561Z,22.87
2019-06-01T12:03:02.814Z,22.89
2019-06-01T12:05:28.836Z,22.90
2019-06-01T12:07:54.831Z,22.90
2019-06-01T12:10:20.858Z,22.93
2019-06-01T12:12:46.853Z,22.95
2019-06-01T12:15:12.892Z,22.95
2019-06-01T12:17:38.986Z,22.95
2019-06-01T12:20:04.925Z,22.95
2019-06-01T12:22:30.971Z,22.95
2019-06-01T12:24:56.959Z,22.98
2019-06-01T12:27:22.980Z,22.97
2019-06-01T12:29:52.450Z,22.97
2019-06-01T12:32:14.985Z,22.97
2019-06-01T12:34:41.947Z,22.98
2019-06-01T12:37:07.025Z,22.97
2019-06-01T12:39:33.088Z,22.98
2019-06-01T12:41:59.082Z,22.99
2019-06-01T12:44:25.084Z,22.97
2019-06-01T12:46:51.136Z,23.00
2019-06-01T12:49:17.156Z,23.00
2019-06-01T12:51:44.406Z,22.99
2019-06-01T12:54:09.171Z,22.99
2019-06-01T12:56:35.195Z,23.00
2019-06-01T12:59:01.194Z,22.99
2019-06-01T13:01:27.189Z,22.99
2019-06-01T13:03:53.208Z,22.99
2019-06-01T13:06:19.200Z,22.99
2019-06-01T13:08:45.246Z,23.00
2019-06-01T13:11:11.244Z,22.99
2019-06-01T13:13:37.298Z,22.99
2019-06-01T13:16:03.330Z,22.99
2019-06-01T13:18:29.431Z,23.00
2019-06-01T13:20:55.455Z,22.99
2019-06-01T13:23:21.452Z,22.99
2019-06-01T13:25:47.722Z,22.99
2019-06-01T13:28:13.479Z,22.97
2019-06-01T13:30:39.497Z,23.00
2019-06-01T13:33:05.493Z,22.99
2019-06-01T13:35:31.537Z,22.99
2019-06-01T13:38:10.650Z,22.99
2019-06-01T13:40:23.541Z,22.99
2019-06-01T13:42:49.581Z,22.99
2019-06-01T13:45:15.713Z,22.99
2019-06-01T13:47:41.744Z,22.99
2019-06-01T13:50:07.739Z,22.99
2019-06-01T13:52:33.807Z,22.99
2019-06-01T13:54:59.807Z,22.99
2019-06-01T13:57:25.826Z,22.99
2019-06-01T13:59:53.096Z,22.99
2019-06-01T14:02:19.149Z,22.99
2019-06-01T14:04:45.198Z,22.99
2019-06-01T14:07:11.137Z,22.98
2019-06-01T14:09:37.139Z,22.98
2019-06-01T14:12:03.180Z,22.98
2019-06-01T14:14:29.178Z,22.98
2019-06-01T14:16:55.754Z,22.98
2019-06-01T14:19:21.218Z,22.98
2019-06-01T14:21:47.759Z,22.98
2019-06-01T14:24:13.312Z,22.98
2019-06-01T14:26:39.308Z,22.97
2019-06-01T14:29:05.334Z,22.97
2019-06-01T14:31:31.471Z,22.97
2019-06-01T14:33:57.434Z,22.96
2019-06-01T14:36:23.443Z,22.96
2019-06-01T14:38:52.824Z,22.96
2019-06-01T14:41:15.455Z,22.95
2019-06-01T14:43:41.458Z,22.95
2019-06-01T14:46:07.494Z,22.93
2019-06-01T14:48:33.594Z,22.93
2019-06-01T14:50:59.593Z,22.92
2019-06-01T14:53:25.635Z,22.92
2019-06-01T14:55:51.772Z,22.93
2019-06-01T14:58:17.622Z,22.92
2019-06-01T15:00:43.633Z,22.90
2019-06-01T15:03:09.632Z,22.91
2019-06-01T15:05:35.654Z,22.90
2019-06-01T15:08:01.656Z,22.89
2019-06-01T15:10:27.676Z,22.89
2019-06-01T15:12:57.257Z,22.88
2019-06-01T15:15:19.710Z,22.88
2019-06-01T15:17:45.719Z,22.88
2019-06-01T15:20:11.711Z,22.88
2019-06-01T15:22:37.742Z,22.88
2019-06-01T15:25:03.813Z,22.88
2019-06-01T15:27:29.744Z,22.88
2019-06-01T15:29:56.859Z,22.87
2019-06-01T15:32:21.787Z,22.87
2019-06-01T15:34:47.800Z,22.88
2019-06-01T15:37:13.810Z,22.88
2019-06-01T15:39:39.807Z,22.88
2019-06-01T15:42:05.820Z,22.88
2019-06-01T15:44:31.859Z,22.88
2019-06-01T15:46:57.878Z,22.89
2019-06-01T15:49:23.882Z,22.89
2019-06-01T15:51:50.006Z,22.89
2019-06-01T15:54:16.015Z,22.91
2019-06-01T15:56:42.030Z,22.91
2019-06-01T15:59:08.494Z,22.92
2019-06-01T16:01:34.498Z,22.92
2019-06-01T16:04:01.342Z,22.94
2019-06-01T16:06:26.519Z,22.94
2019-06-01T16:08:53.234Z,22.94
2019-06-01T16:11:18.556Z,22.93
2019-06-01T16:13:44.581Z,22.94
2019-06-01T16:16:10.712Z,22.93
2019-06-01T16:18:36.712Z,22.93
2019-06-01T16:21:02.743Z,22.95
2019-06-01T16:23:28.740Z,22.94
2019-06-01T16:26:05.972Z,22.95
2019-06-01T16:28:20.977Z,22.95
2019-06-01T16:30:47.104Z,22.95
2019-06-01T16:33:13.102Z,22.95
2019-06-01T16:35:39.177Z,22.96
2019-06-01T16:38:05.884Z,22.96
2019-06-01T16:40:31.219Z,22.96
2019-06-01T16:42:57.316Z,22.96
2019-06-01T16:45:23.270Z,22.96
2019-06-01T16:47:49.269Z,22.95
2019-06-01T16:50:15.301Z,22.95
2019-06-01T16:52:41.383Z,22.96
2019-06-01T16:55:07.379Z,22.96
2019-06-01T16:57:33.338Z,22.97
2019-06-01T17:00:00.674Z,22.97
2019-06-01T17:02:25.376Z,22.99
2019-06-01T17:04:51.436Z,23.00
2019-06-01T17:07:17.516Z,23.01
2019-06-01T17:09:43.507Z,23.01
2019-06-01T17:12:09.535Z,23.03
2019-06-01T17:14:35.592Z,23.03
2019-06-01T17:17:01.594Z,23.03
2019-06-01T17:19:27.610Z,23.04
2019-06-01T17:21:53.627Z,23.03
2019-06-01T17:24:19.636Z,23.04
2019-06-01T17:26:45.654Z,23.05
2019-06-01T17:29:11.679Z,23.05
2019-06-01T17:31:51.404Z,23.06
2019-06-01T17:34:04.646Z,23.06
2019-06-01T17:36:29.775Z,23.05
2019-06-01T17:38:55.788Z,23.06
2019-06-01T17:41:21.832Z,23.06
2019-06-01T17:43:47.830Z,23.06
2019-06-01T17:46:13.866Z,23.07
2019-06-01T17:48:39.860Z,23.06
2019-06-01T17:51:06.626Z,23.04
2019-06-01T17:53:31.906Z,23.03
2019-06-01T17:55:57.904Z,23.03
2019-06-01T17:58:23.923Z,23.02
2019-06-01T18:00:49.921Z,23.02
2019-06-01T18:03:15.921Z,23.02
2019-06-01T18:05:41.943Z,23.02
2019-06-01T18:08:08.231Z,23.03
2019-06-01T18:10:33.989Z,23.03
2019-06-01T18:13:00.025Z,23.03
2019-06-01T18:15:26.029Z,23.03
2019-06-01T18:17:52.055Z,23.03
2019-06-01T18:20:18.050Z,23.03
2019-06-01T18:22:44.096Z,23.03
2019-06-01T18:25:10.505Z,23.03
2019-06-01T18:27:36.125Z,23.03
2019-06-01T18:30:02.785Z,23.04
2019-06-01T18:32:28.125Z,23.03
2019-06-01T18:34:54.137Z,23.03
2019-06-01T18:37:20.134Z,23.03
2019-06-01T18:39:48.040Z,23.02
2019-06-01T18:42:12.434Z,23.03
2019-06-01T18:44:38.223Z,23.02
2019-06-01T18:47:05.534Z,23.01
2019-06-01T18:49:30.305Z,23.02
2019-06-01T18:51:56.323Z,23.02
2019-06-01T18:54:22.322Z,23.02
2019-06-01T18:56:48.359Z,23.01
2019-06-01T18:59:14.533Z,23.01
2019-06-01T19:01:40.392Z,23.00
2019-06-01T19:04:07.526Z,23.01
2019-06-01T19:06:32.475Z,23.01
2019-06-01T19:08:58.462Z,23.01
2019-06-01T19:11:35.115Z,23.00
2019-06-01T19:13:50.808Z,23.00
2019-06-01T19:16:16.808Z,23.00
2019-06-01T19:18:42.832Z,23.00
2019-06-01T19:21:08.941Z,23.00
2019-06-01T19:23:34.967Z,23.00
2019-06-01T19:26:01.007Z,23.00
2019-06-01T19:28:27.132Z,22.98
2019-06-01T19:30:53.139Z,23.00
2019-06-01T19:33:19.618Z,23.00
2019-06-01T19:35:45.267Z,23.01
2019-06-01T19:38:11.551Z,23.01
2019-06-01T19:40:37.278Z,23.02
2019-06-01T19:43:03.337Z,23.02
2019-06-01T19:45:29.737Z,23.02
2019-06-01T19:47:55.431Z,23.01
2019-06-01T19:50:21.584Z,23.02
2019-06-01T19:52:47.576Z,23.03
2019-06-01T19:55:14.873Z,23.03
2019-06-01T19:57:39.590Z,23.03
2019-06-01T20:00:05.596Z,23.04
2019-06-01T20:02:34.040Z,23.03
2019-06-01T20:04:57.615Z,23.03
2019-06-01T20:07:23.636Z,23.04
2019-06-01T20:09:49.651Z,23.03
2019-06-01T20:12:18.503Z,23.04
2019-06-01T20:14:41.667Z,23.04
2019-06-01T20:17:07.664Z,23.04
2019-06-01T20:19:33.690Z,23.05
2019-06-01T20:21:59.677Z,23.06
2019-06-01T20:24:25.790Z,23.05
2019-06-01T20:26:51.789Z,23.06
2019-06-01T20:29:17.809Z,23.06
2019-06-01T20:31:43.822Z,23.06
2019-06-01T20:34:09.840Z,23.06
2019-06-01T20:36:35.856Z,23.06
2019-06-01T20:39:04.311Z,23.07
2019-06-01T20:41:28.059Z,23.07
2019-06-01T20:43:54.115Z,23.08
2019-06-01T20:46:20.906Z,23.09
2019-06-01T20:48:46.159Z,23.09
2019-06-01T20:51:13.164Z,23.09
2019-06-01T20:53:38.270Z,23.10
2019-06-01T20:56:04.308Z,23.09
2019-06-01T20:58:30.770Z,23.09
2019-06-01T21:00:56.798Z,23.08
2019-06-01T21:03:24.353Z,23.10
2019-06-01T21:05:49.654Z,23.11
2019-06-01T21:08:16.099Z,23.11
2019-06-01T21:10:41.905Z,23.11
2019-06-01T21:13:08.196Z,23.11
2019-06-01T21:15:33.930Z,23.11
2019-06-01T21:17:59.973Z,23.12
2019-06-01T21:20:29.851Z,23.12
2019-06-01T21:22:52.000Z,23.12
2019-06-01T21:25:18.845Z,23.12
2019-06-01T21:27:44.225Z,23.12
2019-06-01T21:30:10.282Z,23.13
2019-06-01T21:32:36.440Z,23.13
2019-06-01T21:35:02.465Z,23.13
2019-06-01T21:37:28.454Z,23.13
2019-06-01T21:39:54.496Z,23.13
2019-06-01T21:42:21.616Z,23.12
2019-06-01T21:44:50.486Z,23.12
2019-06-01T21:47:17.601Z,23.11
2019-06-01T21:49:44.852Z,23.09
2019-06-01T21:52:15.985Z,23.10
2019-06-01T21:54:42.813Z,23.10
2019-06-01T21:57:08.830Z,23.09
2019-06-01T21:59:34.845Z,23.08
2019-06-01T22:02:00.879Z,23.08
2019-06-01T22:04:27.242Z,23.08
2019-06-01T22:06:52.929Z,23.08
2019-06-01T22:09:23.475Z,23.07
2019-06-01T22:11:49.416Z,23.07
2019-06-01T22:14:15.452Z,23.06
2019-06-01T22:16:41.479Z,23.07
2019-06-01T22:19:07.465Z,23.06
2019-06-01T22:21:34.291Z,23.06
2019-06-01T22:24:00.287Z,23.05
2019-06-01T22:26:26.415Z,23.05
2019-06-01T22:28:52.307Z,23.06
2019-06-01T22:31:18.349Z,23.05
2019-06-01T22:33:44.329Z,23.05
2019-06-01T22:36:10.329Z,23.04
2019-06-01T22:38:36.341Z,23.05
2019-06-01T22:41:02.362Z,23.05
2019-06-01T22:43:42.183Z,23.03
2019-06-01T22:45:54.414Z,23.03
2019-06-01T22:48:20.486Z,23.03
2019-06-01T22:50:46.416Z,23.01
2019-06-01T22:53:12.426Z,23.01
2019-06-01T22:55:38.448Z,23.00
2019-06-01T22:58:04.506Z,23.00
2019-06-01T23:00:31.739Z,22.99
2019-06-01T23:02:56.470Z,22.99
2019-06-01T23:05:22.989Z,22.98
2019-06-01T23:07:48.483Z,22.98
2019-06-01T23:10:14.470Z,22.97
2019-06-01T23:12:40.488Z,22.97
2019-06-01T23:15:06.497Z,22.96
2019-06-01T23:17:32.504Z,22.96
2019-06-01T23:19:58.519Z,22.95
2019-06-01T23:22:24.514Z,22.94
2019-06-01T23:24:50.504Z,22.95
2019-06-01T23:27:16.522Z,22.94
2019-06-01T23:29:42.522Z,22.93
2019-06-01T23:32:08.552Z,22.93
2019-06-01T23:34:34.548Z,22.91
2019-06-01T23:37:00.560Z,22.91
2019-06-01T23:39:26.696Z,22.90
2019-06-01T23:41:52.591Z,22.90
2019-06-01T23:44:18.603Z,22.89
2019-06-01T23:46:44.627Z,22.89
2019-06-01T23:49:10.645Z,22.86
2019-06-01T23:51:36.645Z,22.89
2019-06-01T23:54:02.662Z,22.88
2019-06-01T23:56:29.719Z,22.87
2019-06-01T23:58:54.803Z,22.87
